Cayey, Puerto Rico

11:52 AM AST on February 14, 2016 (GMT -0400)
Cayey | | Change Station
CLOSE
Current Station
Personal Weather Station
Location: Cayey, PR
Elevation: 1299 ft
Nearby Weather Stations

Elev 1299 ft 18.12 °N, 66.16 °W | Updated 36 seconds ago

Scattered Clouds
Scattered Clouds
77.0 °F
Feels Like 78 °F
N
5.0
Wind Variable Wind from SSW
Gusts 11.0 mph

Today
High -- | Low -- °F
--% Chance of Precip.
Yesterday
High -- | Low -- °F
Precip. -- in
Pressure 30.04 in
Visibility 10.0 miles
Clouds Few 2600 ft
Scattered Clouds 6000 ft
Heat Index 78 °F
Dew Point 46 °F
Humidity 33%
Rainfall 0.00 in
Snow Depth Not available.
6:52 AM 6:24 PM
Waxing Crescent, 43% visible
METAR TJSJ 141456Z 07007KT 10SM FEW026 SCT060 27/20 A3004 RMK AO2 SLP171 VCSH E T02720200 53007 $
Pressure 30.04 in
Visibility 10.0 miles
Clouds Few 2600 ft
Scattered Clouds 6000 ft
Heat Index 78 °F
Dew Point 46 °F
Humidity 33%
Rainfall 0.00 in
Snow Depth Not available.
6:52 AM 6:24 PM
Waxing Crescent, 43% visible
METAR TJSJ 141456Z 07007KT 10SM FEW026 SCT060 27/20 A3004 RMK AO2 SLP171 VCSH E T02720200 53007 $

10-Day Weather Forecast

Almanac

Astronomy

Feb. 14, 2016 Rise Set
Actual Time
Civil Twilight
Nautical Twilight
Astronomical Twilight
Moon
Length of Visible Light
Length of Day
Tomorrow will be .
, % of the Moon is Illuminated

Today's Extremes

Country Highs Country Lows

Community

WunderPhotos

Upload Photos

1,892,802 photos uploaded!

WunderBlog® & News

Nearby

Air Quality

  Air Quality AQ Index Pollutant
Not available.

Snow Depth

Station Depth Elevation

Earthquake Activity

City Distance Mag. Time & Date
Minimum magnitude displayed is 2.5.

Coastal Water Temperatures

Place Temperature

Stations

Nearby Weather Stations

Station Location Temp. Windchill Dew Point Humidity Wind Precip. Elev Updated Type